This is the latest recevied weather packets stored in our database for station/object VK5KJP. If no packets are shown the sender has not sent any weather packets the latest 10 day(s).
| Time | Temp. | Humidity | Pressure | Rain* | Wind** | Luminosity | Snow |
|---|---|---|---|---|---|---|---|
| 1778127323 | 16.11° C | 46% | 1032.3 hPa | 0 mm | - | - | - |
| 1778124354 | 16.11° C | 50% | 1032.6 hPa | 0 mm | - | - | - |
| 1778122574 | 16.11° C | 54% | 1032.8 hPa | 0 mm | - | - | - |
| 1778120154 | 16.11° C | 54% | 1033.1 hPa | 0 mm | - | - | - |
| 1778119554 | 16.67° C | 48% | 1033.2 hPa | 0 mm | - | - | - |
| 1778118923 | 16.11° C | 47% | 1033.2 hPa | 0 mm | - | - | - |
| 1778111754 | 15° C | 55% | 1032.7 hPa | 0 mm | - | - | - |
| 1778110523 | 13.33° C | 65% | 1032.7 hPa | 0 mm | - | - | - |
| 1778109954 | 13.33° C | 66% | 1032.6 hPa | 0 mm | - | - | - |
| 1778100933 | 11.67° C | 71% | 1031 hPa | 0 mm | - | - | - |
| 1778094354 | 11.67° C | 69% | 1030.2 hPa | 0 mm | - | - | - |
| 1778093724 | 11.67° C | 69% | 1030.1 hPa | 0 mm | - | - | - |
| 1778093154 | 11.67° C | 68% | 1030.1 hPa | 0 mm | - | - | - |
| 1778091953 | 12.22° C | 66% | 1029.9 hPa | 0 mm | - | - | - |
| 1778087774 | 12.22° C | 61% | 1029.9 hPa | 0 mm | - | - | - |
| 1778082944 | 13.33° C | 59% | 1030 hPa | 0 mm | - | - | - |
| 1778081124 | 13.33° C | 64% | 1029.6 hPa | 0 mm | - | - | - |
| 1778077553 | 12.78° C | 65% | 1029.5 hPa | 0 mm | - | - | - |
| 1778076924 | 12.78° C | 67% | 1029.4 hPa | 0 mm | - | - | - |
| 1778076353 | 12.78° C | 67% | 1029.3 hPa | 0 mm | - | - | - |
| 1778073373 | 13.33° C | 71% | 1029 hPa | 0 mm | - | - | - |
| 1778071534 | 13.33° C | 72% | 1028.8 hPa | 0 mm | - | - | - |
| 1778069153 | 13.33° C | 81% | 1028.5 hPa | 0 mm | - | - | - |
| 1778068524 | 12.78° C | 85% | 1028.5 hPa | 0 mm | - | - | - |
| 1778065553 | 13.89° C | 86% | 1028 hPa | 0 mm | - | - | - |
* Rain latest hour (hover to see other rain measurements)
** Current wind speed in m/s (hover to see current wind gust speed)